createdAt,value
2023-04-04T00:00:55.791Z,49.27
2023-04-04T00:03:22.582Z,49.32
2023-04-04T00:05:49.314Z,49.61
2023-04-04T00:08:15.818Z,49.48
2023-04-04T00:10:42.591Z,48.98
2023-04-04T00:13:09.619Z,49.00
2023-04-04T00:15:36.736Z,49.20
2023-04-04T00:18:04.138Z,49.66
2023-04-04T00:20:31.219Z,49.17
2023-04-04T00:23:00.592Z,49.15
2023-04-04T00:25:27.237Z,48.90
2023-04-04T00:27:53.815Z,49.56
2023-04-04T00:30:20.348Z,48.90
2023-04-04T00:32:46.932Z,48.91
2023-04-04T00:35:13.540Z,48.56
2023-04-04T00:37:40.034Z,48.69
2023-04-04T00:40:07.041Z,49.21
2023-04-04T00:42:34.085Z,48.41
2023-04-04T00:45:00.930Z,48.95
2023-04-04T00:47:30.144Z,48.05
2023-04-04T00:49:57.037Z,48.21
2023-04-04T00:52:23.734Z,48.32
2023-04-04T00:54:50.449Z,49.00
2023-04-04T00:57:17.661Z,48.81
2023-04-04T00:59:44.169Z,49.08
2023-04-04T01:02:10.916Z,48.63
2023-04-04T01:04:37.881Z,48.52
2023-04-04T01:07:04.615Z,48.62
2023-04-04T01:09:31.635Z,48.79
2023-04-04T01:11:58.315Z,48.68
2023-04-04T01:14:26.508Z,48.66
2023-04-04T01:16:54.010Z,48.90
2023-04-04T01:19:30.530Z,48.88
2023-04-04T01:21:59.419Z,49.38
2023-04-04T01:24:26.149Z,49.04
2023-04-04T01:26:56.728Z,49.41
2023-04-04T01:29:23.250Z,49.53
2023-04-04T01:32:12.906Z,49.75
2023-04-04T01:34:42.722Z,49.84
2023-04-04T01:37:12.519Z,49.51
2023-04-04T01:39:44.898Z,49.71
2023-04-04T01:42:14.572Z,50.64
2023-04-04T01:44:44.104Z,50.54
2023-04-04T01:47:13.140Z,50.49
2023-04-04T01:49:40.864Z,50.98
2023-04-04T01:52:08.048Z,50.23
2023-04-04T01:54:36.116Z,50.29
2023-04-04T01:57:02.702Z,50.62
2023-04-04T01:59:30.228Z,51.10
2023-04-04T02:01:57.773Z,50.62
2023-04-04T02:04:25.009Z,51.25
2023-04-04T02:06:52.909Z,51.09
2023-04-04T02:09:19.460Z,50.95
2023-04-04T02:11:46.710Z,50.54
2023-04-04T02:14:13.278Z,50.89
2023-04-04T02:16:39.809Z,50.76
2023-04-04T02:19:06.343Z,50.43
2023-04-04T02:21:36.829Z,50.04
2023-04-04T02:24:03.387Z,50.66
2023-04-04T02:26:29.956Z,49.97
2023-04-04T02:28:56.723Z,50.01
2023-04-04T02:31:23.576Z,49.89
2023-04-04T02:33:50.640Z,49.96
2023-04-04T02:36:19.376Z,50.13
2023-04-04T02:38:48.154Z,50.11
2023-04-04T02:41:14.812Z,50.75
2023-04-04T02:43:41.426Z,50.26
2023-04-04T02:46:20.540Z,50.50
2023-04-04T02:48:52.095Z,50.62
2023-04-04T02:51:18.942Z,51.22
2023-04-04T02:53:45.620Z,50.59
2023-04-04T02:56:19.778Z,51.22
2023-04-04T02:58:46.722Z,51.17
2023-04-04T03:01:13.284Z,50.89
2023-04-04T03:03:39.990Z,51.15
2023-04-04T03:06:06.633Z,51.15
2023-04-04T03:08:33.179Z,51.14
2023-04-04T03:10:59.738Z,51.21
2023-04-04T03:13:27.002Z,50.91
2023-04-04T03:16:02.650Z,51.49
2023-04-04T03:18:34.721Z,51.78
2023-04-04T03:21:01.350Z,51.29
2023-04-04T03:23:27.874Z,52.01
2023-04-04T03:25:55.229Z,51.88
2023-04-04T03:28:21.867Z,52.04
2023-04-04T03:30:48.394Z,52.14
2023-04-04T03:33:15.294Z,53.16
2023-04-04T03:35:41.991Z,53.38
2023-04-04T03:38:09.508Z,52.62
2023-04-04T03:40:36.583Z,53.15
2023-04-04T03:43:09.160Z,52.81
2023-04-04T03:45:35.917Z,53.28
2023-04-04T03:48:02.980Z,52.99
2023-04-04T03:50:31.352Z,53.40
2023-04-04T03:53:01.368Z,53.17
2023-04-04T03:55:27.954Z,52.69
2023-04-04T03:57:58.960Z,52.86
2023-04-04T04:00:26.182Z,52.86
2023-04-04T04:02:52.909Z,52.94
2023-04-04T04:05:19.554Z,53.68
2023-04-04T04:07:46.725Z,53.61
2023-04-04T04:10:14.316Z,53.70
2023-04-04T04:12:40.920Z,53.61
2023-04-04T04:15:07.901Z,53.30
2023-04-04T04:17:34.951Z,53.51
2023-04-04T04:20:01.525Z,53.93
2023-04-04T04:22:37.045Z,54.09
2023-04-04T04:25:04.404Z,53.93
2023-04-04T04:27:31.858Z,54.39
2023-04-04T04:29:59.248Z,53.76
2023-04-04T04:32:26.675Z,54.10
2023-04-04T04:34:54.182Z,53.46
2023-04-04T04:37:26.687Z,53.32
2023-04-04T04:39:55.615Z,53.12
2023-04-04T04:42:33.527Z,53.07
2023-04-04T04:45:01.810Z,52.65
2023-04-04T04:47:30.389Z,52.04
2023-04-04T04:49:57.111Z,51.26
2023-04-04T04:52:35.888Z,50.58
2023-04-04T04:55:02.676Z,50.31
2023-04-04T04:57:29.408Z,49.24
2023-04-04T04:59:58.744Z,47.50
2023-04-04T05:02:27.945Z,45.69
2023-04-04T05:04:55.477Z,45.38
2023-04-04T05:07:22.689Z,44.51
2023-04-04T05:09:50.069Z,44.70
2023-04-04T05:12:18.121Z,46.06
2023-04-04T05:14:47.601Z,46.87
2023-04-04T05:17:15.536Z,46.58
2023-04-04T05:19:43.090Z,44.83
2023-04-04T05:22:13.773Z,43.30
2023-04-04T05:24:45.464Z,42.69
2023-04-04T05:27:15.576Z,42.24
2023-04-04T05:29:48.266Z,42.52
2023-04-04T05:32:15.893Z,41.04
2023-04-04T05:34:48.656Z,41.46
2023-04-04T05:37:17.567Z,40.69
2023-04-04T05:39:47.855Z,40.44
2023-04-04T05:42:14.880Z,44.39
2023-04-04T05:44:47.309Z,45.63
2023-04-04T05:47:13.883Z,45.65
2023-04-04T05:49:44.367Z,44.14
2023-04-04T05:52:11.485Z,44.09
2023-04-04T05:54:38.364Z,44.91
2023-04-04T05:57:11.901Z,41.61
2023-04-04T05:59:42.246Z,40.61
2023-04-04T06:02:11.454Z,40.09
2023-04-04T06:04:42.346Z,39.26
2023-04-04T06:07:10.731Z,39.05
2023-04-04T06:09:37.340Z,37.67
2023-04-04T06:12:04.710Z,37.90
2023-04-04T06:14:32.476Z,39.89
2023-04-04T06:17:02.160Z,41.95
2023-04-04T06:19:30.172Z,42.68
2023-04-04T06:21:57.585Z,44.05
2023-04-04T06:24:25.013Z,45.20
2023-04-04T06:26:52.763Z,43.72
2023-04-04T06:29:22.637Z,44.60
2023-04-04T06:31:49.711Z,44.49
2023-04-04T06:34:22.793Z,42.62
2023-04-04T06:36:57.584Z,41.66
2023-04-04T06:39:28.141Z,41.77
2023-04-04T06:41:58.092Z,41.74
2023-04-04T06:44:27.864Z,40.81
2023-04-04T06:46:54.497Z,40.42
2023-04-04T06:49:21.007Z,40.99
2023-04-04T06:51:50.851Z,39.91
2023-04-04T06:54:17.418Z,40.13
2023-04-04T06:56:44.005Z,39.94
2023-04-04T06:59:12.393Z,38.89
2023-04-04T07:01:38.956Z,37.34
2023-04-04T07:04:05.899Z,38.02
2023-04-04T07:06:32.399Z,38.70
2023-04-04T07:08:59.034Z,37.76
2023-04-04T07:11:25.687Z,38.69
2023-04-04T07:13:52.376Z,37.52
2023-04-04T07:16:18.931Z,37.17
2023-04-04T07:18:45.475Z,38.04
2023-04-04T07:21:13.527Z,38.63
2023-04-04T07:23:40.061Z,39.41
2023-04-04T07:26:06.813Z,38.09
2023-04-04T07:28:33.514Z,38.20
2023-04-04T07:31:03.537Z,37.69
2023-04-04T07:33:31.275Z,37.70
2023-04-04T07:35:58.076Z,37.26
2023-04-04T07:38:24.644Z,37.58
2023-04-04T07:40:51.141Z,38.28
2023-04-04T07:43:17.738Z,38.20
2023-04-04T07:45:44.340Z,38.48
2023-04-04T07:48:11.175Z,37.78
2023-04-04T07:50:38.016Z,36.47
2023-04-04T07:53:04.781Z,37.27
2023-04-04T07:55:31.307Z,36.94
2023-04-04T07:57:58.555Z,36.87
2023-04-04T08:00:26.555Z,36.47
2023-04-04T08:02:53.997Z,36.45
2023-04-04T08:05:20.796Z,36.57
2023-04-04T08:07:47.390Z,36.12
2023-04-04T08:10:17.368Z,37.59
2023-04-04T08:12:44.939Z,36.78
2023-04-04T08:15:12.120Z,36.93
2023-04-04T08:17:38.774Z,36.44
2023-04-04T08:20:05.667Z,37.95
2023-04-04T08:22:33.057Z,37.11
2023-04-04T08:25:00.612Z,37.94
2023-04-04T08:27:27.480Z,38.04
2023-04-04T08:29:53.999Z,37.17
2023-04-04T08:32:20.606Z,37.48
2023-04-04T08:34:47.143Z,37.79
2023-04-04T08:37:14.747Z,38.52
2023-04-04T08:39:41.327Z,38.18
2023-04-04T08:42:09.429Z,38.54
2023-04-04T08:44:36.980Z,38.19
2023-04-04T08:47:08.468Z,37.83
2023-04-04T08:49:38.907Z,37.73
2023-04-04T08:52:06.498Z,36.83
2023-04-04T08:54:34.359Z,37.20
2023-04-04T08:57:01.784Z,37.27
2023-04-04T08:59:29.019Z,36.56
2023-04-04T09:02:01.358Z,37.25
2023-04-04T09:04:29.065Z,37.46
2023-04-04T09:06:56.076Z,37.22
2023-04-04T09:09:22.866Z,36.14
2023-04-04T09:11:51.315Z,37.23
2023-04-04T09:14:18.602Z,37.47
2023-04-04T09:16:45.100Z,36.99
2023-04-04T09:19:11.575Z,36.41
2023-04-04T09:21:38.083Z,36.69
2023-04-04T09:24:04.846Z,37.19
2023-04-04T09:26:47.662Z,36.27
2023-04-04T09:29:14.671Z,36.11
2023-04-04T09:31:41.925Z,36.30
2023-04-04T09:34:08.455Z,36.14
2023-04-04T09:36:35.032Z,36.87
2023-04-04T09:39:03.102Z,36.28
2023-04-04T09:41:29.987Z,37.47
2023-04-04T09:43:57.819Z,35.95
2023-04-04T09:46:25.253Z,36.43
2023-04-04T09:48:51.986Z,36.20
2023-04-04T09:51:18.651Z,35.51
2023-04-04T09:53:47.990Z,36.33
2023-04-04T09:56:14.587Z,36.22
2023-04-04T09:58:52.478Z,35.93
2023-04-04T10:01:23.788Z,35.96
2023-04-04T10:03:55.886Z,36.73
2023-04-04T10:06:22.870Z,36.54
2023-04-04T10:08:49.818Z,35.78
2023-04-04T10:11:28.591Z,36.09
2023-04-04T10:13:56.623Z,35.82
2023-04-04T10:16:24.336Z,35.36
2023-04-04T10:18:52.004Z,35.43
2023-04-04T10:21:18.778Z,35.63
2023-04-04T10:23:46.476Z,36.03
2023-04-04T10:26:13.505Z,35.16
2023-04-04T10:28:40.466Z,35.88
2023-04-04T10:31:13.254Z,36.75
2023-04-04T10:33:43.079Z,35.62
2023-04-04T10:36:15.915Z,35.80
2023-04-04T10:38:44.897Z,36.63
2023-04-04T10:41:13.141Z,36.97
2023-04-04T10:43:41.831Z,37.36
2023-04-04T10:46:11.764Z,37.12
2023-04-04T10:48:38.808Z,37.05
2023-04-04T10:51:06.201Z,37.57
2023-04-04T10:53:34.233Z,36.90
2023-04-04T10:56:01.734Z,37.15
2023-04-04T10:58:28.556Z,37.05
2023-04-04T11:00:56.141Z,36.81
2023-04-04T11:03:23.095Z,37.46
2023-04-04T11:05:51.701Z,36.30
2023-04-04T11:08:22.438Z,36.31
2023-04-04T11:10:52.227Z,35.46
2023-04-04T11:13:22.639Z,35.54
2023-04-04T11:15:52.935Z,35.85
2023-04-04T11:18:32.047Z,35.76
2023-04-04T11:21:03.650Z,35.25
2023-04-04T11:23:50.466Z,34.14
2023-04-04T11:26:18.742Z,35.19
2023-04-04T11:28:46.623Z,35.38
2023-04-04T11:31:19.446Z,35.33
2023-04-04T11:33:56.594Z,34.03
2023-04-04T11:36:35.248Z,35.12
2023-04-04T11:39:03.956Z,35.00
2023-04-04T11:41:52.503Z,35.00
2023-04-04T11:44:19.950Z,34.51
2023-04-04T11:46:49.777Z,34.53
2023-04-04T11:49:18.516Z,33.77
2023-04-04T11:51:45.793Z,34.71
2023-04-04T11:54:16.689Z,34.96
2023-04-04T11:56:46.544Z,35.45
2023-04-04T11:59:14.130Z,34.87
2023-04-04T12:01:41.222Z,34.45
2023-04-04T12:04:09.421Z,35.24
2023-04-04T12:06:36.388Z,34.73
2023-04-04T12:09:06.072Z,34.38
2023-04-04T12:11:36.468Z,34.62
2023-04-04T12:14:03.178Z,34.61
2023-04-04T12:16:30.202Z,35.25
2023-04-04T12:18:57.432Z,34.93
2023-04-04T12:21:24.285Z,34.07
2023-04-04T12:23:50.912Z,33.79
2023-04-04T12:26:19.076Z,34.20
2023-04-04T12:28:45.977Z,34.17
2023-04-04T12:31:14.074Z,34.69
2023-04-04T12:33:42.186Z,34.76
2023-04-04T12:36:09.158Z,33.71
2023-04-04T12:38:40.137Z,34.50
2023-04-04T12:41:09.612Z,34.60
2023-04-04T12:43:41.629Z,33.99
2023-04-04T12:46:08.843Z,33.59
2023-04-04T12:48:36.830Z,33.61
2023-04-04T12:51:04.922Z,33.39
2023-04-04T12:53:33.265Z,34.13
2023-04-04T12:56:04.751Z,34.20
2023-04-04T12:58:31.866Z,33.11
2023-04-04T13:01:01.301Z,33.13
2023-04-04T13:03:28.874Z,34.09
2023-04-04T13:05:55.474Z,34.28
2023-04-04T13:08:22.111Z,33.70
2023-04-04T13:11:03.916Z,34.56
2023-04-04T13:13:37.773Z,34.35
2023-04-04T13:16:06.381Z,34.42
2023-04-04T13:18:41.828Z,33.95
2023-04-04T13:21:08.843Z,34.61
2023-04-04T13:23:37.573Z,34.21
2023-04-04T13:26:04.846Z,34.40
2023-04-04T13:28:31.938Z,33.23
2023-04-04T13:31:01.606Z,33.35
2023-04-04T13:33:28.226Z,32.91
2023-04-04T13:35:54.844Z,33.79
2023-04-04T13:38:21.421Z,33.53
2023-04-04T13:40:48.009Z,33.77
2023-04-04T13:43:15.452Z,33.71
2023-04-04T13:45:43.145Z,34.24
2023-04-04T13:48:13.223Z,33.77
2023-04-04T13:50:40.577Z,33.63
2023-04-04T13:53:07.567Z,33.13
2023-04-04T13:55:34.065Z,33.40
2023-04-04T13:58:00.890Z,34.08
2023-04-04T14:00:28.393Z,33.63
2023-04-04T14:02:57.626Z,33.91
2023-04-04T14:05:24.299Z,33.56
2023-04-04T14:07:50.844Z,33.46
2023-04-04T14:10:17.470Z,33.58
2023-04-04T14:12:44.225Z,33.71
2023-04-04T14:15:12.375Z,33.16
2023-04-04T14:17:38.931Z,32.92
2023-04-04T14:20:05.894Z,33.91
2023-04-04T14:22:33.638Z,33.56
2023-04-04T14:25:00.349Z,34.06
2023-04-04T14:27:26.937Z,34.42
2023-04-04T14:29:53.842Z,34.08
2023-04-04T14:32:20.791Z,34.87
2023-04-04T14:34:47.359Z,35.27
2023-04-04T14:37:13.982Z,34.69
2023-04-04T14:39:40.536Z,34.25
2023-04-04T14:42:07.192Z,34.43
2023-04-04T14:44:33.910Z,35.03
2023-04-04T14:47:00.824Z,34.80
2023-04-04T14:49:27.932Z,34.79
2023-04-04T14:51:54.514Z,34.94
2023-04-04T14:54:21.167Z,34.57
2023-04-04T14:56:47.986Z,33.98
2023-04-04T14:59:14.544Z,34.48
2023-04-04T15:01:41.520Z,34.46
2023-04-04T15:04:09.237Z,34.73
2023-04-04T15:06:38.119Z,35.49
2023-04-04T15:09:06.142Z,35.48
2023-04-04T15:11:32.858Z,35.62
2023-04-04T15:13:59.442Z,35.80
2023-04-04T15:16:26.241Z,36.17
2023-04-04T15:18:52.848Z,36.19
2023-04-04T15:21:19.392Z,35.85
2023-04-04T15:23:46.027Z,36.41
2023-04-04T15:26:12.514Z,36.20
2023-04-04T15:28:39.101Z,36.72
2023-04-04T15:31:06.197Z,36.22
2023-04-04T15:33:33.050Z,36.40
2023-04-04T15:35:59.665Z,36.60
2023-04-04T15:38:26.466Z,36.15
2023-04-04T15:40:53.163Z,36.72
2023-04-04T15:43:19.785Z,35.91
2023-04-04T15:45:47.497Z,36.62
2023-04-04T15:48:14.090Z,36.88
2023-04-04T15:50:40.994Z,36.22
2023-04-04T15:53:07.842Z,36.80
2023-04-04T15:55:34.472Z,36.77
2023-04-04T15:58:01.081Z,36.94
2023-04-04T16:00:30.360Z,37.01
2023-04-04T16:02:58.304Z,37.06
2023-04-04T16:05:25.056Z,37.15
2023-04-04T16:07:51.595Z,36.79
2023-04-04T16:10:18.288Z,37.36
2023-04-04T16:12:45.941Z,37.39
2023-04-04T16:15:12.615Z,37.46
2023-04-04T16:17:39.147Z,37.47
2023-04-04T16:20:06.289Z,37.89
2023-04-04T16:22:33.356Z,37.88
2023-04-04T16:25:00.031Z,37.93
2023-04-04T16:27:27.135Z,38.09
2023-04-04T16:29:53.879Z,37.75
2023-04-04T16:32:20.456Z,37.77
2023-04-04T16:34:46.981Z,37.86
2023-04-04T16:37:14.441Z,38.19
2023-04-04T16:39:40.995Z,38.23
2023-04-04T16:42:07.629Z,38.08
2023-04-04T16:44:34.730Z,38.39
2023-04-04T16:47:01.355Z,38.42
2023-04-04T16:49:27.946Z,38.39
2023-04-04T16:51:54.549Z,38.43
2023-04-04T16:54:21.054Z,38.60
2023-04-04T16:56:47.597Z,38.67
2023-04-04T16:59:16.068Z,38.79
2023-04-04T17:01:46.115Z,39.14
2023-04-04T17:04:12.732Z,39.26
2023-04-04T17:06:39.377Z,38.85
2023-04-04T17:09:06.080Z,39.63
2023-04-04T17:11:32.607Z,39.34
2023-04-04T17:13:59.280Z,39.63
2023-04-04T17:16:26.788Z,39.28
2023-04-04T17:18:53.563Z,39.80
2023-04-04T17:21:20.185Z,40.10
2023-04-04T17:23:46.742Z,40.07
2023-04-04T17:26:13.557Z,40.05
2023-04-04T17:28:41.488Z,39.92
2023-04-04T17:31:08.154Z,40.18
2023-04-04T17:33:34.801Z,40.43
2023-04-04T17:36:02.104Z,40.53
2023-04-04T17:38:30.895Z,40.66
2023-04-04T17:41:00.394Z,41.03
2023-04-04T17:43:27.220Z,41.03
2023-04-04T17:45:53.825Z,41.19
2023-04-04T17:48:20.683Z,41.86
2023-04-04T17:50:47.803Z,41.80
2023-04-04T17:53:14.343Z,41.91
2023-04-04T17:55:41.133Z,41.79
2023-04-04T17:58:07.705Z,41.85
2023-04-04T18:00:35.101Z,42.28
2023-04-04T18:03:01.784Z,41.99
2023-04-04T18:05:28.874Z,42.03
2023-04-04T18:07:56.115Z,42.28
2023-04-04T18:10:22.761Z,42.78
2023-04-04T18:12:49.316Z,42.48
2023-04-04T18:15:16.209Z,42.84
2023-04-04T18:17:43.014Z,43.04
2023-04-04T18:20:10.602Z,42.93
2023-04-04T18:22:39.225Z,43.18
2023-04-04T18:25:06.070Z,43.20
2023-04-04T18:27:32.800Z,43.41
2023-04-04T18:29:59.441Z,43.62
2023-04-04T18:32:28.407Z,44.29
2023-04-04T18:34:55.895Z,44.79
2023-04-04T18:37:22.629Z,44.86
2023-04-04T18:39:49.148Z,44.67
2023-04-04T18:42:16.070Z,45.39
2023-04-04T18:44:42.667Z,45.20
2023-04-04T18:47:09.292Z,45.41
2023-04-04T18:49:36.308Z,45.49
2023-04-04T18:52:02.845Z,45.77
2023-04-04T18:54:29.419Z,45.72
2023-04-04T18:56:59.733Z,45.52
2023-04-04T18:59:26.677Z,46.38
2023-04-04T19:01:54.095Z,45.82
2023-04-04T19:04:21.011Z,46.09
2023-04-04T19:06:51.558Z,45.94
2023-04-04T19:09:19.549Z,46.44
2023-04-04T19:11:46.403Z,46.51
2023-04-04T19:14:13.175Z,46.20
2023-04-04T19:16:40.630Z,46.73
2023-04-04T19:19:07.420Z,46.81
2023-04-04T19:21:34.101Z,46.49
2023-04-04T19:24:00.709Z,46.43
2023-04-04T19:26:27.326Z,46.20
2023-04-04T19:28:53.883Z,46.47
2023-04-04T19:31:21.902Z,46.23
2023-04-04T19:33:49.299Z,46.81
2023-04-04T19:36:16.449Z,46.55
2023-04-04T19:38:44.668Z,46.31
2023-04-04T19:41:23.252Z,46.34
2023-04-04T19:43:50.742Z,46.82
2023-04-04T19:46:26.555Z,46.81
2023-04-04T19:48:53.964Z,47.08
2023-04-04T19:51:20.494Z,46.80
2023-04-04T19:53:47.918Z,47.29
2023-04-04T19:56:15.738Z,47.34
2023-04-04T19:58:42.458Z,46.89
2023-04-04T20:01:10.309Z,47.66
2023-04-04T20:03:39.903Z,47.02
2023-04-04T20:06:06.466Z,47.41
2023-04-04T20:08:41.126Z,47.61
2023-04-04T20:11:10.669Z,47.41
2023-04-04T20:13:37.920Z,47.61
2023-04-04T20:16:06.124Z,47.95
2023-04-04T20:18:33.511Z,47.84
2023-04-04T20:21:10.847Z,47.88
2023-04-04T20:23:57.868Z,48.08
2023-04-04T20:26:36.750Z,48.47
2023-04-04T20:29:07.309Z,48.23
2023-04-04T20:31:34.512Z,48.49
2023-04-04T20:34:01.081Z,48.40
2023-04-04T20:36:34.297Z,48.03
2023-04-04T20:39:00.857Z,48.74
2023-04-04T20:41:27.401Z,48.67
2023-04-04T20:43:58.037Z,48.69
2023-04-04T20:46:25.633Z,49.34
2023-04-04T20:48:56.247Z,49.11
2023-04-04T20:51:32.277Z,49.36
2023-04-04T20:54:00.377Z,48.85
2023-04-04T20:56:39.454Z,48.50
2023-04-04T20:59:24.858Z,48.45
2023-04-04T21:01:51.413Z,48.65
2023-04-04T21:04:25.544Z,48.52
2023-04-04T21:06:52.655Z,48.00
2023-04-04T21:09:19.337Z,48.16
2023-04-04T21:11:46.259Z,48.41
2023-04-04T21:14:22.694Z,48.07
2023-04-04T21:16:49.293Z,48.13
2023-04-04T21:19:18.312Z,48.37
2023-04-04T21:21:44.790Z,48.46
2023-04-04T21:24:12.728Z,49.10
2023-04-04T21:26:40.827Z,49.38
2023-04-04T21:29:33.657Z,49.46
2023-04-04T21:32:00.260Z,49.18
2023-04-04T21:34:27.410Z,49.29
2023-04-04T21:36:55.897Z,49.51
2023-04-04T21:39:26.668Z,49.48
2023-04-04T21:41:56.568Z,49.62
2023-04-04T21:44:23.457Z,49.84
2023-04-04T21:46:50.067Z,49.89
2023-04-04T21:49:16.813Z,49.82
2023-04-04T21:51:43.377Z,50.35
2023-04-04T21:54:10.158Z,49.65
2023-04-04T21:56:38.223Z,50.01
2023-04-04T21:59:05.844Z,50.14
2023-04-04T22:01:32.385Z,50.66
2023-04-04T22:03:59.381Z,50.40
2023-04-04T22:06:27.311Z,50.45
2023-04-04T22:08:54.903Z,50.47
2023-04-04T22:11:21.489Z,50.25
2023-04-04T22:13:48.739Z,50.69
2023-04-04T22:16:19.497Z,50.46
2023-04-04T22:18:47.161Z,50.79
2023-04-04T22:21:14.626Z,50.78
2023-04-04T22:23:41.473Z,50.97
2023-04-04T22:26:09.367Z,50.91
2023-04-04T22:28:37.592Z,51.44
2023-04-04T22:31:06.882Z,51.11
2023-04-04T22:33:34.102Z,50.96
2023-04-04T22:36:01.519Z,51.57
2023-04-04T22:38:28.956Z,51.54
2023-04-04T22:40:56.487Z,51.52
2023-04-04T22:43:23.316Z,51.63
2023-04-04T22:45:49.853Z,51.62
2023-04-04T22:48:17.216Z,51.75
2023-04-04T22:50:44.853Z,51.65
2023-04-04T22:53:13.184Z,52.14
2023-04-04T22:55:40.337Z,51.88
2023-04-04T22:58:07.294Z,51.93
2023-04-04T23:00:34.152Z,52.42
2023-04-04T23:03:02.202Z,52.61
2023-04-04T23:05:28.878Z,52.72
2023-04-04T23:07:55.675Z,52.42
2023-04-04T23:10:22.163Z,52.34
2023-04-04T23:12:48.705Z,52.52
2023-04-04T23:15:15.203Z,52.67
2023-04-04T23:17:41.699Z,52.57
2023-04-04T23:20:09.376Z,52.44
2023-04-04T23:22:36.894Z,52.63
2023-04-04T23:25:04.396Z,52.90
2023-04-04T23:27:31.526Z,52.88
2023-04-04T23:30:00.386Z,52.88
2023-04-04T23:32:27.618Z,52.60
2023-04-04T23:34:54.200Z,52.58
2023-04-04T23:37:20.691Z,52.36
2023-04-04T23:39:47.454Z,52.70
2023-04-04T23:42:13.976Z,52.99
2023-04-04T23:44:40.502Z,52.58
2023-04-04T23:47:07.081Z,52.68
2023-04-04T23:49:33.794Z,52.80
2023-04-04T23:52:00.298Z,52.60
2023-04-04T23:54:26.877Z,53.08
2023-04-04T23:56:53.367Z,53.10
2023-04-04T23:59:19.877Z,52.85
